EGPM

Scatsta Airport

Shetland Islands, United Kingdom
METAR EGPM 120920Z 17019KT 9999 FEW016 BKN023 08/04 Q1021 NOSIG
Observed Flight Rules
Dec-12 @ 09:20 UTC (24 minutes ago) Marginal Visual Flight Rules
Wind Visibility Clouds
170° at 19 knots 10,000+ meters
  • Few at 1,600' AGL
  • Broken at 2,300' AGL
Temperatures Readings
Current 8°C / 46°F
Dewpoint 4°C / 39°F
Humidity 76%
Altimeter 30.15" Hg
Pressure 1021 hPa
Elevation 22
METAR EGPM 120920Z 17019KT 9999 FEW016 BKN023 08/04 Q1021 NOSIG
Observed Flight Rules
Dec-12 @ 09:20 UTC
(24 minutes ago)
MVFR
Wind Visibility
170° at 19 knots 10,000+ meters
Clouds
  • Few at 1,600' AGL
  • Broken at 2,300' AGL
Temperature Dewpoint
8°C / 46°F 4°C / 39°F
Humidity Altimeter Pressure
76% 30.15" Hg 1021 hPa